Time;durP1;ratioP1;P1;durP2;ratioP2;P2;SDS_P1;SDS_P2;PMS_P1;PMS_P2;Temp;Humidity;BMP_temperature;BMP_pressure;BME280_temperature;BME280_humidity;BME280_pressure;Samples;Min_cycle;Max_cycle;Signal;HPM_P1;HPM_P2
2022/07/09 00:01:02;;;;;;;8.40;6.60;;;18.70;99.90;18.60;98814.00;;;;5019686;27;85992;-60
2022/07/09 00:03:28;;;;;;;9.07;6.70;;;18.70;99.90;18.70;98818.00;;;;5054411;27;83259;-59
2022/07/09 00:05:55;;;;;;;11.25;7.10;;;18.70;99.90;18.60;98817.00;;;;5052696;27;82021;-60
2022/07/09 00:08:22;;;;;;;10.93;8.25;;;18.70;99.90;18.60;98814.00;;;;5044414;27;85251;-60
2022/07/09 00:10:48;;;;;;;9.60;7.43;;;18.60;99.90;18.60;98814.00;;;;5056659;27;82648;-60
2022/07/09 00:13:14;;;;;;;10.98;7.53;;;18.70;99.90;18.50;98815.00;;;;5052074;27;82619;-60
2022/07/09 00:15:40;;;;;;;12.38;8.43;;;18.60;99.90;18.30;98819.00;;;;5045314;27;82268;-60
2022/07/09 00:18:06;;;;;;;13.25;8.43;;;18.40;99.90;18.30;98816.00;;;;5039695;28;82863;-60
2022/07/09 00:20:32;;;;;;;15.35;8.15;;;18.40;99.90;18.20;98821.00;;;;5052155;27;82782;-61
2022/07/09 00:22:58;;;;;;;11.65;8.82;;;18.30;99.90;18.10;98820.00;;;;5058875;27;82216;-60
2022/07/09 00:25:25;;;;;;;13.43;9.40;;;18.30;99.90;18.10;98818.00;;;;5056219;27;83790;-60
2022/07/09 00:27:51;;;;;;;12.23;8.55;;;18.20;99.90;18.10;98813.00;;;;5041776;27;82213;-60
2022/07/09 00:30:17;;;;;;;15.48;8.82;;;18.20;99.90;18.10;98824.00;;;;5062756;27;83008;-60
2022/07/09 00:32:43;;;;;;;10.63;7.30;;;18.20;99.90;18.10;98822.00;;;;5058509;27;82116;-60
2022/07/09 00:35:09;;;;;;;10.90;6.90;;;18.20;99.90;18.10;98815.00;;;;5049124;27;82530;-60
2022/07/09 00:37:35;;;;;;;7.88;5.88;;;18.20;99.90;18.20;98813.00;;;;5055890;27;82852;-62
2022/07/09 00:40:02;;;;;;;8.93;5.63;;;18.30;99.90;18.20;98820.00;;;;5051072;27;82594;-62
2022/07/09 00:42:29;;;;;;;7.35;4.90;;;18.40;99.90;18.40;98825.00;;;;5035788;27;82616;-60
2022/07/09 00:44:55;;;;;;;10.73;4.88;;;18.40;99.90;18.50;98811.00;;;;5062536;27;81881;-62
2022/07/09 00:47:21;;;;;;;6.30;3.67;;;18.50;99.90;18.40;98813.00;;;;5055301;27;81966;-62
2022/07/09 00:49:48;;;;;;;7.43;3.10;;;18.40;99.90;18.30;98812.00;;;;5039125;28;84153;-61
2022/07/09 00:52:17;;;;;;;6.30;3.63;;;18.40;99.90;18.30;98810.00;;;;5036964;27;82135;-61
2022/07/09 00:54:44;;;;;;;9.13;6.30;;;18.40;99.90;18.30;98808.00;;;;5054133;27;82225;-61
2022/07/09 00:57:12;;;;;;;8.15;6.25;;;18.40;99.90;18.30;98805.00;;;;5054477;27;82426;-61
2022/07/09 00:59:39;;;;;;;12.48;7.80;;;18.40;99.90;18.20;98810.00;;;;5034504;27;82755;-61
2022/07/09 01:02:09;;;;;;;9.85;7.95;;;18.30;99.90;18.20;98806.00;;;;5052573;27;82020;-61
2022/07/09 01:04:37;;;;;;;15.70;7.63;;;18.20;99.90;18.10;98810.00;;;;5060953;27;81877;-61
2022/07/09 01:07:04;;;;;;;10.88;8.15;;;18.20;99.90;18.10;98813.00;;;;5048414;27;83685;-61
2022/07/09 01:09:30;;;;;;;10.23;8.68;;;18.10;99.90;18.10;98816.00;;;;5053494;27;82638;-61
2022/07/09 01:11:57;;;;;;;13.85;8.93;;;18.20;99.90;18.20;98825.00;;;;5050963;27;83426;-61
2022/07/09 01:14:23;;;;;;;12.20;9.05;;;18.20;99.90;18.20;98827.00;;;;5028271;27;83153;-61
2022/07/09 01:17:02;;;;;;;12.82;10.13;;;18.20;99.90;18.30;98825.00;;;;5058142;27;82430;-61
2022/07/09 01:19:29;;;;;;;11.40;7.53;;;18.20;99.90;18.40;98826.00;;;;5034909;27;83832;-61
2022/07/09 01:21:55;;;;;;;5.03;2.78;;;18.40;99.90;18.70;98819.00;;;;5052298;27;82209;-62
2022/07/09 01:24:23;;;;;;;8.05;4.22;;;18.60;99.90;18.90;98829.00;;;;5034504;27;82113;-61
2022/07/09 01:26:52;;;;;;;6.15;3.30;;;18.80;99.90;19.10;98824.00;;;;5052309;27;82499;-61
2022/07/09 01:29:19;;;;;;;4.13;2.67;;;18.90;99.90;19.30;98817.00;;;;5057357;27;83558;-61
2022/07/09 01:31:46;;;;;;;9.57;3.78;;;19.10;99.90;19.40;98813.00;;;;5060140;27;82768;-61
2022/07/09 01:34:12;;;;;;;7.55;3.35;;;19.20;99.90;19.50;98812.00;;;;5046467;28;81807;-61
2022/07/09 01:36:38;;;;;;;5.15;3.13;;;19.30;99.90;19.50;98807.00;;;;5054021;27;82250;-61
2022/07/09 01:39:05;;;;;;;4.38;2.80;;;19.30;99.90;19.50;98810.00;;;;5045729;27;84529;-61
2022/07/09 01:41:32;;;;;;;6.95;3.45;;;19.30;99.90;19.50;98801.00;;;;5044236;27;82622;-61
2022/07/09 01:43:58;;;;;;;5.28;3.00;;;19.40;99.90;19.50;98803.00;;;;5049635;27;82019;-60
2022/07/09 01:46:24;;;;;;;8.25;4.82;;;19.30;99.90;19.50;98800.00;;;;5036233;27;82590;-60
2022/07/09 01:48:51;;;;;;;10.02;5.72;;;19.30;99.90;19.40;98802.00;;;;5038382;27;82649;-60
2022/07/09 01:51:17;;;;;;;11.82;8.73;;;19.20;99.90;19.40;98801.00;;;;5037981;27;82489;-61
2022/07/09 01:53:45;;;;;;;11.43;8.25;;;19.20;99.90;19.40;98798.00;;;;5051037;27;82618;-61
2022/07/09 01:56:12;;;;;;;10.88;7.25;;;19.20;99.90;19.40;98798.00;;;;5052809;27;82209;-60
2022/07/09 01:58:38;;;;;;;12.02;6.20;;;19.20;99.90;19.40;98801.00;;;;5055163;27;82727;-61
2022/07/09 02:01:05;;;;;;;11.30;7.43;;;19.20;99.90;19.40;98797.00;;;;5037628;27;82617;-61
2022/07/09 02:03:31;;;;;;;11.07;7.25;;;19.20;99.90;19.50;98796.00;;;;5043516;27;83170;-60
2022/07/09 02:05:57;;;;;;;11.18;7.97;;;19.20;99.90;19.50;98802.00;;;;5050384;27;81923;-61
2022/07/09 02:08:23;;;;;;;16.70;9.00;;;19.20;99.90;19.50;98808.00;;;;5058779;27;82577;-61
2022/07/09 02:10:50;;;;;;;12.63;8.20;;;19.30;99.90;19.50;98811.00;;;;5050754;27;82706;-60
2022/07/09 02:13:17;;;;;;;12.00;8.60;;;19.20;99.90;19.40;98808.00;;;;5054174;27;83763;-61
2022/07/09 02:16:04;;;;;;;12.82;8.68;;;19.20;99.90;19.40;98810.00;;;;5032488;27;83411;-60
2022/07/09 02:18:30;;;;;;;16.02;9.32;;;19.10;99.90;19.30;98812.00;;;;5057182;27;82493;-60
2022/07/09 02:20:56;;;;;;;16.35;10.10;;;19.10;99.90;19.50;98816.00;;;;5055995;27;83360;-61
2022/07/09 02:23:23;;;;;;;14.05;9.40;;;19.30;99.90;19.70;98816.00;;;;5048741;27;82951;-61
2022/07/09 02:25:50;;;;;;;15.68;9.68;;;19.50;99.90;20.00;98811.00;;;;5049039;27;82162;-60
2022/07/09 02:28:16;;;;;;;16.17;9.93;;;19.70;99.90;20.30;98826.00;;;;5047992;27;84756;-60
2022/07/09 02:30:42;;;;;;;12.68;9.05;;;20.10;99.90;20.80;98814.00;;;;5053389;27;84369;-60
2022/07/09 02:33:08;;;;;;;21.77;11.38;;;20.40;99.90;21.10;98812.00;;;;5039550;27;82617;-59
2022/07/09 02:35:35;;;;;;;24.23;10.80;;;20.70;99.90;21.50;98819.00;;;;5053727;27;82668;-59
2022/07/09 02:38:01;;;;;;;19.55;9.90;;;21.10;99.90;21.80;98817.00;;;;5052784;27;82499;-58
2022/07/09 02:40:27;;;;;;;21.83;10.02;;;21.40;99.90;22.20;98829.00;;;;5037094;27;82556;-59
2022/07/09 02:42:53;;;;;;;18.15;11.10;;;21.70;99.90;22.30;98836.00;;;;5049617;27;83152;-60
2022/07/09 02:45:19;;;;;;;18.95;9.32;;;21.80;99.90;22.10;98835.00;;;;5033025;27;83588;-59
2022/07/09 02:47:46;;;;;;;20.67;10.82;;;21.60;99.90;21.80;98843.00;;;;5016919;27;83678;-58
2022/07/09 02:50:12;;;;;;;16.00;9.50;;;21.40;99.90;21.40;98834.00;;;;5056338;27;84721;-64
2022/07/09 02:52:38;;;;;;;14.70;9.73;;;21.10;99.90;21.10;98832.00;;;;5053422;27;83028;-64
2022/07/09 02:55:04;;;;;;;20.70;10.70;;;20.90;99.90;20.80;98826.00;;;;5046577;27;82551;-64
2022/07/09 02:57:30;;;;;;;19.90;9.93;;;20.60;99.90;20.60;98836.00;;;;5034728;27;82889;-62
2022/07/09 02:59:57;;;;;;;17.75;9.82;;;20.40;99.90;20.50;98838.00;;;;5057900;27;82568;-61
2022/07/09 03:02:23;;;;;;;15.23;8.98;;;20.30;99.90;20.30;98837.00;;;;5047914;27;82499;-61
2022/07/09 03:04:49;;;;;;;16.08;9.27;;;20.10;99.90;20.20;98850.00;;;;5054384;27;82290;-62
2022/07/09 03:07:15;;;;;;;15.32;7.72;;;20.00;99.90;20.20;98855.00;;;;5054409;27;82379;-62
2022/07/09 03:09:41;;;;;;;15.18;7.35;;;20.00;99.90;20.50;98868.00;;;;5053794;27;83483;-62
2022/07/09 03:12:08;;;;;;;14.95;6.68;;;20.30;99.90;21.20;98867.00;;;;5052930;27;81987;-62
2022/07/09 03:14:34;;;;;;;11.45;6.40;;;20.80;99.90;21.50;98853.00;;;;5053135;27;83380;-61
2022/07/09 03:17:00;;;;;;;16.45;6.35;;;21.10;99.90;21.60;98848.00;;;;5054212;27;84582;-61
2022/07/09 03:19:26;;;;;;;14.32;8.05;;;21.10;99.90;21.40;98847.00;;;;5053549;27;84587;-64
2022/07/09 03:21:52;;;;;;;16.15;7.50;;;21.00;99.90;21.20;98847.00;;;;5045442;27;82101;-64
2022/07/09 03:24:18;;;;;;;21.75;8.20;;;20.90;99.90;21.00;98850.00;;;;5053104;27;83698;-64
2022/07/09 03:26:45;;;;;;;20.50;8.27;;;20.70;99.90;20.80;98828.00;;;;5053369;27;82696;-65
2022/07/09 03:29:11;;;;;;;14.18;8.77;;;20.50;99.90;20.70;98828.00;;;;5054563;27;82194;-62
2022/07/09 03:31:37;;;;;;;18.23;9.15;;;20.40;99.90;20.50;98825.00;;;;5031001;27;82053;-62
2022/07/09 03:34:03;;;;;;;21.98;9.90;;;20.20;99.90;20.20;98818.00;;;;5055665;27;83427;-62
2022/07/09 03:36:30;;;;;;;20.15;10.20;;;20.00;99.90;20.00;98803.00;;;;5053114;27;82616;-65
2022/07/09 03:38:56;;;;;;;19.88;10.55;;;19.80;99.90;19.90;98782.00;;;;5022736;27;84540;-60
2022/07/09 03:41:22;;;;;;;21.75;10.77;;;19.70;99.90;19.80;98763.00;;;;5033238;28;83251;-60
2022/07/09 03:43:49;;;;;;;25.23;11.27;;;19.60;99.90;19.70;98764.00;;;;5029740;28;83127;-60
2022/07/09 03:46:15;;;;;;;23.17;11.65;;;19.40;99.90;19.60;98797.00;;;;5033217;28;82831;-60
2022/07/09 03:48:41;;;;;;;20.70;11.27;;;19.40;99.90;19.50;98776.00;;;;5032261;28;83401;-61
2022/07/09 03:51:07;;;;;;;18.70;10.60;;;19.30;99.90;19.50;98762.00;;;;5034740;28;82952;-60
2022/07/09 03:53:34;;;;;;;17.02;10.10;;;19.40;99.90;19.80;98764.00;;;;5031810;27;82652;-61
2022/07/09 03:56:01;;;;;;;21.67;10.65;;;19.60;99.90;20.10;98793.00;;;;5030792;28;85175;-61
2022/07/09 03:58:27;;;;;;;18.65;9.70;;;19.90;99.90;20.60;98799.00;;;;5029196;28;83525;-61
2022/07/09 04:00:54;;;;;;;21.88;10.05;;;20.40;99.90;21.50;98807.00;;;;5033047;27;83079;-61
2022/07/09 04:03:20;;;;;;;16.58;10.07;;;21.20;99.90;22.50;98818.00;;;;5028911;28;82883;-61
2022/07/09 04:05:47;;;;;;;18.92;10.02;;;22.00;99.90;23.50;98824.00;;;;5039437;28;85499;-62
2022/07/09 04:08:13;;;;;;;23.55;10.68;;;22.90;99.90;23.60;98813.00;;;;5036442;28;86405;-60
2022/07/09 04:10:40;;;;;;;25.17;9.90;;;22.90;99.90;23.60;98814.00;;;;5028562;28;83203;-61
2022/07/09 04:13:06;;;;;;;19.80;9.90;;;23.10;99.90;24.10;98814.00;;;;5032301;28;82276;-61
2022/07/09 04:15:32;;;;;;;18.15;9.73;;;23.50;99.90;24.40;98823.00;;;;5030695;28;83420;-60
2022/07/09 04:17:58;;;;;;;17.10;8.88;;;23.60;99.90;24.10;98810.00;;;;5032492;27;82334;-61
2022/07/09 04:20:25;;;;;;;17.00;10.05;;;23.60;99.90;24.50;98815.00;;;;5028081;28;82903;-62
2022/07/09 04:22:52;;;;;;;20.55;9.75;;;23.90;99.90;25.10;98823.00;;;;5031591;28;82664;-62
2022/07/09 04:25:18;;;;;;;19.92;10.55;;;24.50;99.90;25.70;98822.00;;;;5030889;28;83713;-61
2022/07/09 04:27:44;;;;;;;19.23;9.90;;;25.00;99.90;26.00;98823.00;;;;5034125;28;83261;-60
2022/07/09 04:30:11;;;;;;;22.98;10.15;;;25.20;99.90;25.60;98820.00;;;;5034390;27;82915;-60
2022/07/09 04:32:37;;;;;;;15.63;8.15;;;24.80;99.90;25.40;98821.00;;;;5034416;27;83148;-60
2022/07/09 04:35:04;;;;;;;13.50;6.45;;;24.70;99.90;25.80;98820.00;;;;5033650;28;82730;-61
2022/07/09 04:37:30;;;;;;;16.35;8.80;;;25.00;99.90;25.90;98826.00;;;;5035991;27;82457;-61
2022/07/09 04:39:56;;;;;;;12.73;7.43;;;25.10;99.90;26.20;98832.00;;;;5031617;28;81873;-60
2022/07/09 04:42:22;;;;;;;10.90;6.47;;;25.30;99.90;26.20;98826.00;;;;5031962;28;83385;-59
2022/07/09 04:44:48;;;;;;;10.20;5.95;;;25.30;99.90;26.00;98819.00;;;;5025796;28;82710;-59
2022/07/09 04:47:14;;;;;;;12.52;5.13;;;25.30;99.90;26.10;98808.00;;;;5033154;28;83396;-60
2022/07/09 04:49:41;;;;;;;8.77;5.20;;;25.30;99.90;26.10;98808.00;;;;5031812;28;82901;-60
2022/07/09 04:52:07;;;;;;;12.57;4.72;;;25.30;99.90;26.00;98801.00;;;;5036450;27;82453;-60
2022/07/09 04:54:33;;;;;;;7.78;4.30;;;25.30;99.90;26.00;98809.00;;;;5036466;28;83510;-59
2022/07/09 04:56:59;;;;;;;10.73;4.03;;;25.30;99.90;26.00;98806.00;;;;5037055;28;83103;-61
2022/07/09 04:59:26;;;;;;;8.02;3.63;;;25.20;99.90;26.10;98805.00;;;;5033183;28;82045;-61
2022/07/09 05:01:52;;;;;;;8.68;3.10;;;25.30;99.90;26.30;98806.00;;;;5038448;28;82207;-61
2022/07/09 05:04:18;;;;;;;7.25;3.30;;;25.50;99.90;26.40;98797.00;;;;5045448;28;84029;-61
2022/07/09 05:06:44;;;;;;;7.22;3.20;;;25.70;99.90;26.70;98786.00;;;;5034612;27;83216;-61
2022/07/09 05:09:10;;;;;;;5.13;2.88;;;25.90;99.90;26.40;98782.00;;;;5037029;27;82580;-61
2022/07/09 05:11:36;;;;;;;8.38;3.38;;;25.70;99.90;26.70;98784.00;;;;5044264;28;82272;-61
2022/07/09 05:14:02;;;;;;;5.95;3.40;;;26.10;99.90;27.60;98798.00;;;;5031862;28;83493;-61
2022/07/09 05:16:28;;;;;;;4.88;2.88;;;26.70;99.90;27.60;98803.00;;;;5028382;28;84527;-62
2022/07/09 05:18:55;;;;;;;6.32;2.92;;;26.60;99.90;27.30;98801.00;;;;5028008;28;82815;-62
2022/07/09 05:21:21;;;;;;;8.70;3.03;;;26.50;99.90;27.30;98794.00;;;;5034302;28;82035;-62
2022/07/09 05:23:47;;;;;;;7.03;3.03;;;26.50;99.90;27.60;98793.00;;;;5034666;27;82607;-61
2022/07/09 05:26:13;;;;;;;5.60;3.10;;;26.80;99.90;28.10;98797.00;;;;5036355;27;84063;-61
2022/07/09 05:28:39;;;;;;;5.85;2.97;;;27.20;99.90;28.10;98808.00;;;;5036156;28;82141;-62
2022/07/09 05:31:05;;;;;;;4.45;2.38;;;27.10;99.90;27.80;98812.00;;;;5036607;28;82598;-62
2022/07/09 05:33:32;;;;;;;5.53;2.45;;;26.90;99.90;27.30;98808.00;;;;5033890;28;83692;-62
2022/07/09 05:35:58;;;;;;;4.18;2.50;;;26.50;99.90;27.00;98810.00;;;;5039788;28;83460;-61
2022/07/09 05:38:24;;;;;;;6.30;2.70;;;26.20;99.90;26.80;98798.00;;;;5033337;28;81872;-60
2022/07/09 05:40:50;;;;;;;6.47;2.78;;;26.10;99.90;26.70;98799.00;;;;5041037;27;82347;-59
2022/07/09 05:43:17;;;;;;;5.13;2.33;;;26.00;99.90;26.70;98796.00;;;;5052704;27;83620;-61
2022/07/09 05:45:43;;;;;;;4.47;2.35;;;26.10;99.90;26.80;98795.00;;;;5055061;27;84537;-61
2022/07/09 05:48:09;;;;;;;4.47;2.45;;;26.20;99.90;26.90;98792.00;;;;5053835;27;82193;-61
2022/07/09 05:50:36;;;;;;;5.72;2.35;;;26.20;99.90;27.20;98795.00;;;;5054472;27;82312;-61
2022/07/09 05:53:02;;;;;;;4.20;2.10;;;26.40;99.90;27.50;98788.00;;;;5064967;27;82560;-61
2022/07/09 05:55:28;;;;;;;4.63;1.75;;;26.70;99.90;27.70;98793.00;;;;5057665;27;82372;-61
2022/07/09 05:57:54;;;;;;;4.03;1.50;;;27.00;99.90;28.10;98777.00;;;;5032630;27;82237;-61
2022/07/09 06:00:20;;;;;;;5.32;1.80;;;27.30;99.90;28.50;98783.00;;;;5052249;27;82844;-61
2022/07/09 06:02:46;;;;;;;3.67;1.63;;;27.50;99.90;28.40;98780.00;;;;5027884;28;82719;-61
2022/07/09 06:05:12;;;;;;;2.53;1.50;;;27.60;99.90;28.80;98783.00;;;;5048463;27;82187;-60
2022/07/09 06:07:44;;;;;;;3.53;1.40;;;28.00;99.90;29.40;98775.00;;;;5055962;27;83631;-60
2022/07/09 06:10:13;;;;;;;3.10;1.60;;;28.40;99.90;29.50;98768.00;;;;5057926;27;82659;-61
2022/07/09 06:12:40;;;;;;;1.42;1.20;;;28.60;99.90;29.20;98764.00;;;;5057173;27;81952;-60
2022/07/09 06:15:07;;;;;;;5.53;1.60;;;28.30;99.90;29.10;98769.00;;;;5046992;27;82240;-60
2022/07/09 06:17:33;;;;;;;2.78;1.20;;;28.20;99.90;28.80;98758.00;;;;5049717;27;81845;-61
2022/07/09 06:20:00;;;;;;;1.85;1.30;;;27.90;99.90;28.40;98777.00;;;;5047964;27;83023;-60
2022/07/09 06:22:26;;;;;;;3.80;1.60;;;27.60;99.90;28.20;98768.00;;;;5050660;27;82865;-61
2022/07/09 06:24:52;;;;;;;3.05;1.63;;;27.40;99.90;28.00;98768.00;;;;5063261;27;82326;-61
2022/07/09 06:27:18;;;;;;;3.08;1.75;;;27.20;99.90;28.20;98766.00;;;;5057229;27;81856;-60
2022/07/09 06:29:44;;;;;;;5.18;1.77;;;27.40;99.90;28.60;98771.00;;;;5056908;27;82220;-62
2022/07/09 06:32:10;;;;;;;6.03;2.20;;;27.70;99.90;28.20;98779.00;;;;5053919;27;83481;-59
2022/07/09 06:34:36;;;;;;;4.93;2.08;;;27.20;99.90;27.60;98774.00;;;;5053628;27;83289;-61
2022/07/09 06:37:03;;;;;;;9.75;2.35;;;26.80;99.90;27.10;98779.00;;;;5052145;27;81895;-61
2022/07/09 06:39:48;;;;;;;3.55;2.20;;;26.40;99.90;26.70;98773.00;;;;5055890;27;82529;-61
2022/07/09 06:42:17;;;;;;;5.47;2.20;;;26.10;99.90;26.30;98783.00;;;;5047939;27;82917;-60
2022/07/09 06:44:46;;;;;;;6.88;2.13;;;25.70;99.90;26.10;98775.00;;;;5037406;27;82206;-61
2022/07/09 06:47:13;;;;;;;5.65;2.25;;;25.50;99.90;25.90;98768.00;;;;5056880;27;81952;-60
2022/07/09 06:49:39;;;;;;;8.07;2.60;;;25.40;99.90;26.00;98769.00;;;;5051945;27;81627;-60
2022/07/09 06:52:07;;;;;;;4.97;2.08;;;25.40;99.90;26.00;98777.00;;;;5055311;27;82518;-60
2022/07/09 06:54:35;;;;;;;7.60;3.13;;;25.40;99.90;25.70;98778.00;;;;5056146;27;82487;-62
2022/07/09 06:57:03;;;;;;;7.90;2.22;;;25.10;99.90;25.60;98771.00;;;;5031297;27;82909;-61
2022/07/09 06:59:29;;;;;;;8.93;2.40;;;25.00;99.90;25.60;98772.00;;;;5055773;27;82260;-60
2022/07/09 07:01:55;;;;;;;4.45;2.00;;;25.00;99.90;25.40;98772.00;;;;5053983;27;83697;-61
2022/07/09 07:04:22;;;;;;;2.70;1.60;;;24.90;99.90;25.30;98768.00;;;;5053015;27;82453;-60
2022/07/09 07:06:48;;;;;;;4.28;2.05;;;24.80;99.90;25.30;98767.00;;;;5054702;27;82063;-62
2022/07/09 07:09:20;;;;;;;4.00;1.77;;;24.70;99.90;25.30;98775.00;;;;5052493;27;82265;-60
2022/07/09 07:11:48;;;;;;;3.53;1.98;;;24.80;99.90;25.20;98764.00;;;;5050212;27;82646;-60
2022/07/09 07:14:15;;;;;;;3.95;2.40;;;24.70;99.90;25.20;98771.00;;;;5053054;27;83821;-61
2022/07/09 07:16:42;;;;;;;3.50;2.22;;;24.60;99.90;24.90;98783.00;;;;5056998;27;81895;-60
2022/07/09 07:19:10;;;;;;;4.97;2.63;;;24.40;99.90;24.70;98793.00;;;;5056328;27;82283;-61
2022/07/09 07:21:37;;;;;;;7.10;2.70;;;24.20;99.90;24.40;98792.00;;;;5052373;27;84533;-60
2022/07/09 07:24:05;;;;;;;4.03;2.85;;;23.90;99.90;24.20;98791.00;;;;5057551;27;83167;-61
2022/07/09 07:26:32;;;;;;;7.45;2.83;;;23.80;99.90;24.00;98784.00;;;;5052097;27;81944;-61
2022/07/09 07:28:59;;;;;;;7.22;2.38;;;23.60;99.90;23.80;98782.00;;;;5053295;27;82357;-61
2022/07/09 07:31:25;;;;;;;4.25;2.55;;;23.40;99.90;23.60;98777.00;;;;5053281;27;82432;-61
2022/07/09 07:33:52;;;;;;;8.70;3.30;;;23.20;99.90;23.40;98772.00;;;;5055872;27;82219;-61
2022/07/09 07:36:18;;;;;;;5.13;2.72;;;23.00;99.90;23.50;98783.00;;;;5049119;27;81935;-60
2022/07/09 07:38:47;;;;;;;8.18;2.53;;;23.10;99.90;23.60;98802.00;;;;5056391;27;83525;-61
2022/07/09 07:41:16;;;;;;;5.43;2.45;;;23.20;99.90;23.50;98807.00;;;;5052247;27;83838;-60
2022/07/09 07:43:42;;;;;;;4.80;2.50;;;23.00;99.90;23.30;98810.00;;;;5053233;27;82031;-60
2022/07/09 07:46:08;;;;;;;5.78;3.00;;;22.90;99.90;23.20;98811.00;;;;5052754;27;82917;-60
2022/07/09 07:48:35;;;;;;;5.85;3.00;;;22.80;99.90;22.90;98816.00;;;;5052410;27;82337;-60
2022/07/09 07:51:03;;;;;;;5.68;3.20;;;22.40;99.90;22.50;98816.00;;;;5051271;27;82200;-60
2022/07/09 07:53:33;;;;;;;6.88;3.42;;;22.10;99.90;22.20;98816.00;;;;5052832;27;82238;-61
2022/07/09 07:56:04;;;;;;;8.27;2.85;;;21.80;99.90;21.90;98815.00;;;;5058129;27;81977;-62
2022/07/09 07:58:30;;;;;;;4.53;3.35;;;21.50;99.90;21.90;98819.00;;;;5053045;27;82127;-61
2022/07/09 08:00:57;;;;;;;10.35;3.40;;;21.50;99.90;22.00;98823.00;;;;5054065;27;82875;-61
2022/07/09 08:03:23;;;;;;;5.78;3.25;;;21.50;99.90;22.00;98829.00;;;;5060982;27;83401;-61
2022/07/09 08:05:50;;;;;;;6.93;2.90;;;21.60;99.90;22.10;98827.00;;;;5032467;27;82874;-61
2022/07/09 08:08:18;;;;;;;7.80;3.03;;;21.70;99.90;22.20;98830.00;;;;5053803;27;83614;-62
2022/07/09 08:10:45;;;;;;;7.97;3.33;;;21.70;99.90;22.30;98826.00;;;;5032739;27;83635;-62
2022/07/09 08:13:12;;;;;;;6.93;3.35;;;21.90;99.90;22.30;98826.00;;;;5053638;27;82232;-62
2022/07/09 08:15:38;;;;;;;7.35;3.22;;;21.90;99.90;22.20;98826.00;;;;5051789;27;82080;-61
2022/07/09 08:18:06;;;;;;;6.40;2.42;;;21.80;99.90;22.10;98832.00;;;;5050249;27;83183;-61
2022/07/09 08:20:32;;;;;;;6.05;2.58;;;21.70;99.90;21.90;98825.00;;;;5049722;27;83358;-61
2022/07/09 08:22:58;;;;;;;4.05;2.63;;;21.50;99.90;21.90;98823.00;;;;5054792;27;82072;-61
2022/07/09 08:25:25;;;;;;;6.50;2.88;;;21.50;99.90;21.90;98822.00;;;;5055429;27;82251;-60
2022/07/09 08:27:51;;;;;;;7.97;3.20;;;21.40;99.90;21.90;98816.00;;;;5058608;27;81762;-60
2022/07/09 08:30:17;;;;;;;10.70;3.58;;;21.50;99.90;21.90;98818.00;;;;5055871;27;82606;-61
2022/07/09 08:32:43;;;;;;;6.10;3.13;;;21.40;99.90;21.80;98822.00;;;;5058515;27;82227;-61
2022/07/09 08:35:09;;;;;;;7.75;4.05;;;21.40;99.90;21.60;98818.00;;;;5037774;27;83431;-61
2022/07/09 08:37:35;;;;;;;7.50;3.47;;;21.20;99.90;21.60;98815.00;;;;5055092;27;83824;-61
2022/07/09 08:40:07;;;;;;;7.88;3.25;;;21.20;99.90;21.60;98827.00;;;;5053042;27;83589;-61
2022/07/09 08:42:33;;;;;;;15.80;4.88;;;21.20;99.90;21.60;98823.00;;;;5046832;27;83486;-61
2022/07/09 08:45:00;;;;;;;5.70;3.28;;;21.30;99.90;21.70;98828.00;;;;5037119;27;81919;-61
2022/07/09 08:47:26;;;;;;;11.32;3.60;;;21.30;99.90;21.70;98826.00;;;;5055232;27;82236;-62
2022/07/09 08:49:59;;;;;;;6.90;3.20;;;21.40;99.90;21.70;98826.00;;;;5042869;27;82799;-61
2022/07/09 08:52:26;;;;;;;9.52;3.00;;;21.40;99.90;21.60;98826.00;;;;5039995;27;81994;-61
2022/07/09 08:54:55;;;;;;;7.43;3.60;;;21.30;99.90;21.60;98821.00;;;;5060288;27;81917;-61
2022/07/09 08:57:31;;;;;;;10.18;4.55;;;21.40;99.90;21.80;98825.00;;;;5051876;27;82485;-61
2022/07/09 09:00:07;;;;;;;11.23;3.63;;;21.40;99.90;21.80;98813.00;;;;5054353;27;84034;-60
2022/07/09 09:02:43;;;;;;;6.25;3.13;;;21.50;99.90;21.80;98808.00;;;;5036357;28;84737;-60
2022/07/09 09:05:18;;;;;;;9.02;3.53;;;21.40;99.90;21.80;98804.00;;;;5062562;27;82394;-62
2022/07/09 09:07:44;;;;;;;7.43;3.67;;;21.50;99.90;22.10;98796.00;;;;5057664;27;82406;-61
2022/07/09 09:10:25;;;;;;;4.82;3.22;;;21.70;99.90;22.30;98798.00;;;;5058562;27;82660;-61
2022/07/09 09:13:01;;;;;;;7.22;3.08;;;21.90;99.90;22.40;98774.00;;;;5054787;27;82720;-62
2022/07/09 09:15:29;;;;;;;8.95;4.15;;;22.00;99.90;22.40;98772.00;;;;5053795;27;81972;-62
2022/07/09 09:17:57;;;;;;;7.05;2.63;;;22.00;99.90;22.50;98760.00;;;;5033219;28;81521;-61
2022/07/09 09:20:24;;;;;;;6.07;2.88;;;22.10;99.90;22.50;98762.00;;;;5051718;27;82494;-61
2022/07/09 09:22:59;;;;;;;6.82;3.03;;;22.10;99.90;22.70;98762.00;;;;5059894;27;82028;-61
2022/07/09 09:25:26;;;;;;;4.97;2.80;;;22.30;99.90;23.00;98759.00;;;;5045733;28;82948;-61
2022/07/09 09:27:59;;;;;;;6.10;2.70;;;22.50;99.90;23.20;98761.00;;;;5053150;27;82091;-62
2022/07/09 09:30:30;;;;;;;7.25;2.80;;;22.70;99.90;23.40;98757.00;;;;5028354;28;82874;-61
2022/07/09 09:33:02;;;;;;;9.82;2.63;;;22.90;99.90;23.50;98747.00;;;;5046696;28;82340;-61
2022/07/09 09:35:33;;;;;;;8.50;3.20;;;23.00;99.90;23.70;98735.00;;;;5046039;27;81945;-61
2022/07/09 09:38:00;;;;;;;8.98;4.05;;;23.20;99.90;23.80;98729.00;;;;5063755;27;82057;-61
2022/07/09 09:40:26;;;;;;;7.47;3.33;;;23.30;99.90;23.80;98737.00;;;;5056806;27;82964;-63
2022/07/09 09:42:53;;;;;;;5.72;2.63;;;23.30;99.90;23.80;98732.00;;;;5055689;27;81596;-62
2022/07/09 09:45:19;;;;;;;7.22;2.78;;;23.30;99.90;23.60;98725.00;;;;5038918;27;82216;-62
2022/07/09 09:47:50;;;;;;;6.55;2.92;;;23.10;99.90;23.50;98733.00;;;;5055940;27;82395;-60
2022/07/09 09:50:23;;;;;;;9.73;3.05;;;23.00;99.90;23.40;98730.00;;;;5052176;27;83852;-61
2022/07/09 09:52:52;;;;;;;4.45;3.10;;;23.00;99.90;23.60;98719.00;;;;5053897;27;83451;-61
2022/07/09 09:55:21;;;;;;;4.45;2.80;;;23.10;99.90;23.60;98717.00;;;;5039836;27;82394;-61
2022/07/09 09:57:49;;;;;;;5.95;2.97;;;23.10;99.90;23.90;98719.00;;;;5042035;27;82173;-61
2022/07/09 10:00:16;;;;;;;7.32;3.40;;;23.40;99.90;24.10;98717.00;;;;5035255;27;84482;-61
2022/07/09 10:02:47;;;;;;;9.65;3.55;;;23.50;99.90;24.00;98718.00;;;;5059898;27;82455;-62
2022/07/09 10:05:13;;;;;;;;;;;23.50;99.90;24.00;98708.00;;;;5048896;27;81977;-61
2022/07/09 10:07:44;;;;;;;5.40;3.10;;;23.40;99.90;24.20;98701.00;;;;5057309;27;82755;-64
2022/07/09 10:10:19;;;;;;;7.18;4.15;;;23.60;99.90;24.30;98718.00;;;;5039420;27;82679;-61
2022/07/09 10:12:46;;;;;;;9.70;3.97;;;23.70;99.90;24.30;98711.00;;;;5035698;28;82393;-61
2022/07/09 10:15:26;;;;;;;7.68;3.80;;;23.70;99.90;24.30;98696.00;;;;5064714;27;83268;-60
2022/07/09 10:17:53;;;;;;;8.85;3.78;;;23.80;99.90;24.30;98692.00;;;;5061757;27;82228;-62
2022/07/09 10:20:36;;;;;;;7.57;3.28;;;23.80;99.90;24.20;98695.00;;;;5059193;27;83656;-61
2022/07/09 10:23:04;;;;;;;6.13;3.78;;;23.70;99.90;24.20;98688.00;;;;5062548;27;83455;-62
2022/07/09 10:25:43;;;;;;;8.65;3.58;;;23.70;99.90;24.30;98690.00;;;;5065555;27;82388;-61
2022/07/09 10:28:17;;;;;;;6.72;3.78;;;23.80;99.90;24.40;98690.00;;;;5059000;27;82392;-62
2022/07/09 10:30:43;;;;;;;7.43;4.22;;;23.90;99.90;24.60;98692.00;;;;5065479;27;83658;-61
2022/07/09 10:33:24;;;;;;;7.97;3.72;;;24.10;99.90;24.70;98678.00;;;;5047558;27;82431;-61
2022/07/09 10:35:52;;;;;;;7.75;4.07;;;24.20;99.90;24.70;98678.00;;;;5047631;27;81934;-61
2022/07/09 10:38:22;;;;;;;8.57;4.78;;;24.20;99.90;24.70;98671.00;;;;5045754;27;82301;-61
2022/07/09 10:40:58;;;;;;;8.32;4.00;;;24.20;99.90;24.70;98666.00;;;;5044255;28;83672;-61
2022/07/09 10:43:46;;;;;;;10.35;4.78;;;24.20;99.90;24.60;98656.00;;;;5050189;27;84172;-61
2022/07/09 10:46:14;;;;;;;9.95;5.18;;;24.00;99.90;24.40;98654.00;;;;5055556;27;81916;-61
2022/07/09 10:48:41;;;;;;;7.70;4.50;;;23.80;99.90;24.30;98652.00;;;;5055044;27;83738;-61
2022/07/09 10:51:07;;;;;;;13.95;5.50;;;23.80;99.90;24.20;98647.00;;;;5051212;27;81900;-62